sensor_id;sensor_type;location;lat;lon;timestamp;pressure;altitude;pressure_sealevel;temperature
20736;BMP180;10528;52.124;5.196;2023-03-12T00:00:17;100996.00;;;8.40
20736;BMP180;10528;52.124;5.196;2023-03-12T00:02:45;100996.00;;;8.40
20736;BMP180;10528;52.124;5.196;2023-03-12T00:05:12;100985.00;;;8.50
20736;BMP180;10528;52.124;5.196;2023-03-12T00:07:39;100986.00;;;8.50
20736;BMP180;10528;52.124;5.196;2023-03-12T00:10:07;100976.00;;;8.50
20736;BMP180;10528;52.124;5.196;2023-03-12T00:12:34;100985.00;;;8.50
20736;BMP180;10528;52.124;5.196;2023-03-12T00:15:01;100983.00;;;8.50
20736;BMP180;10528;52.124;5.196;2023-03-12T00:17:28;100980.00;;;8.60
20736;BMP180;10528;52.124;5.196;2023-03-12T00:19:56;100973.00;;;8.60
20736;BMP180;10528;52.124;5.196;2023-03-12T00:22:23;100969.00;;;8.60
20736;BMP180;10528;52.124;5.196;2023-03-12T00:24:53;100975.00;;;8.60
20736;BMP180;10528;52.124;5.196;2023-03-12T00:27:22;100983.00;;;8.70
20736;BMP180;10528;52.124;5.196;2023-03-12T00:29:50;100977.00;;;8.70
20736;BMP180;10528;52.124;5.196;2023-03-12T00:32:17;100971.00;;;8.70
20736;BMP180;10528;52.124;5.196;2023-03-12T00:34:49;100970.00;;;8.70
20736;BMP180;10528;52.124;5.196;2023-03-12T00:37:17;100978.00;;;8.70
20736;BMP180;10528;52.124;5.196;2023-03-12T00:39:44;100971.00;;;8.70
20736;BMP180;10528;52.124;5.196;2023-03-12T00:42:11;100979.00;;;8.80
20736;BMP180;10528;52.124;5.196;2023-03-12T00:44:38;100963.00;;;8.80
20736;BMP180;10528;52.124;5.196;2023-03-12T00:47:05;100962.00;;;8.80
20736;BMP180;10528;52.124;5.196;2023-03-12T00:49:32;100965.00;;;8.80
20736;BMP180;10528;52.124;5.196;2023-03-12T00:51:59;100963.00;;;8.80
20736;BMP180;10528;52.124;5.196;2023-03-12T00:54:26;100962.00;;;8.80
20736;BMP180;10528;52.124;5.196;2023-03-12T00:56:53;100955.00;;;8.80
20736;BMP180;10528;52.124;5.196;2023-03-12T00:59:20;100954.00;;;8.80
20736;BMP180;10528;52.124;5.196;2023-03-12T01:01:47;100937.00;;;8.80
20736;BMP180;10528;52.124;5.196;2023-03-12T01:04:14;100936.00;;;8.80
20736;BMP180;10528;52.124;5.196;2023-03-12T01:06:41;100926.00;;;8.80
20736;BMP180;10528;52.124;5.196;2023-03-12T01:09:08;100931.00;;;8.80
20736;BMP180;10528;52.124;5.196;2023-03-12T01:11:37;100930.00;;;8.80
20736;BMP180;10528;52.124;5.196;2023-03-12T01:14:07;100931.00;;;8.80
20736;BMP180;10528;52.124;5.196;2023-03-12T01:16:34;100927.00;;;8.80
20736;BMP180;10528;52.124;5.196;2023-03-12T01:19:02;100931.00;;;8.80
20736;BMP180;10528;52.124;5.196;2023-03-12T01:21:30;100931.00;;;8.80
20736;BMP180;10528;52.124;5.196;2023-03-12T01:23:57;100942.00;;;8.90
20736;BMP180;10528;52.124;5.196;2023-03-12T01:26:24;100941.00;;;8.90
20736;BMP180;10528;52.124;5.196;2023-03-12T01:28:51;100947.00;;;8.90
20736;BMP180;10528;52.124;5.196;2023-03-12T01:31:19;100930.00;;;8.90
20736;BMP180;10528;52.124;5.196;2023-03-12T01:33:51;100924.00;;;8.90
20736;BMP180;10528;52.124;5.196;2023-03-12T01:36:22;100930.00;;;8.90
20736;BMP180;10528;52.124;5.196;2023-03-12T01:38:52;100936.00;;;9.00
20736;BMP180;10528;52.124;5.196;2023-03-12T01:41:21;100932.00;;;9.00
20736;BMP180;10528;52.124;5.196;2023-03-12T01:43:48;100925.00;;;9.00
20736;BMP180;10528;52.124;5.196;2023-03-12T01:46:19;100932.00;;;9.00
20736;BMP180;10528;52.124;5.196;2023-03-12T01:48:57;100927.00;;;9.00
20736;BMP180;10528;52.124;5.196;2023-03-12T01:51:31;100920.00;;;9.00
20736;BMP180;10528;52.124;5.196;2023-03-12T01:54:04;100911.00;;;9.10
20736;BMP180;10528;52.124;5.196;2023-03-12T01:56:34;100921.00;;;9.10
20736;BMP180;10528;52.124;5.196;2023-03-12T01:59:11;100914.00;;;9.10
20736;BMP180;10528;52.124;5.196;2023-03-12T02:01:41;100908.00;;;9.10
20736;BMP180;10528;52.124;5.196;2023-03-12T02:04:11;100916.00;;;9.10
20736;BMP180;10528;52.124;5.196;2023-03-12T02:06:48;100900.00;;;9.10
20736;BMP180;10528;52.124;5.196;2023-03-12T02:09:20;100890.00;;;9.10
20736;BMP180;10528;52.124;5.196;2023-03-12T02:11:48;100897.00;;;9.10
20736;BMP180;10528;52.124;5.196;2023-03-12T02:14:15;100894.00;;;9.20
20736;BMP180;10528;52.124;5.196;2023-03-12T02:16:43;100891.00;;;9.20
20736;BMP180;10528;52.124;5.196;2023-03-12T02:19:40;100883.00;;;9.20
20736;BMP180;10528;52.124;5.196;2023-03-12T02:22:10;100881.00;;;9.20
20736;BMP180;10528;52.124;5.196;2023-03-12T02:27:45;100876.00;;;9.20
20736;BMP180;10528;52.124;5.196;2023-03-12T02:30:13;100868.00;;;9.20
20736;BMP180;10528;52.124;5.196;2023-03-12T02:32:44;100857.00;;;9.20
20736;BMP180;10528;52.124;5.196;2023-03-12T02:35:15;100862.00;;;9.30
20736;BMP180;10528;52.124;5.196;2023-03-12T02:37:52;100850.00;;;9.30
20736;BMP180;10528;52.124;5.196;2023-03-12T02:40:28;100830.00;;;9.30
20736;BMP180;10528;52.124;5.196;2023-03-12T02:42:58;100839.00;;;9.30
20736;BMP180;10528;52.124;5.196;2023-03-12T02:45:26;100845.00;;;9.30
20736;BMP180;10528;52.124;5.196;2023-03-12T02:47:53;100832.00;;;9.30
20736;BMP180;10528;52.124;5.196;2023-03-12T02:50:20;100829.00;;;9.30
20736;BMP180;10528;52.124;5.196;2023-03-12T02:52:47;100827.00;;;9.30
20736;BMP180;10528;52.124;5.196;2023-03-12T02:55:14;100825.00;;;9.30
20736;BMP180;10528;52.124;5.196;2023-03-12T02:57:40;100826.00;;;9.30
20736;BMP180;10528;52.124;5.196;2023-03-12T03:00:13;100817.00;;;9.30
20736;BMP180;10528;52.124;5.196;2023-03-12T03:02:44;100823.00;;;9.30
20736;BMP180;10528;52.124;5.196;2023-03-12T03:05:12;100820.00;;;9.40
20736;BMP180;10528;52.124;5.196;2023-03-12T03:07:39;100818.00;;;9.40
20736;BMP180;10528;52.124;5.196;2023-03-12T03:10:07;100812.00;;;9.40
20736;BMP180;10528;52.124;5.196;2023-03-12T03:12:35;100801.00;;;9.40
20736;BMP180;10528;52.124;5.196;2023-03-12T03:15:05;100808.00;;;9.40
20736;BMP180;10528;52.124;5.196;2023-03-12T03:17:32;100795.00;;;9.40
20736;BMP180;10528;52.124;5.196;2023-03-12T03:19:59;100793.00;;;9.40
20736;BMP180;10528;52.124;5.196;2023-03-12T03:22:26;100785.00;;;9.40
20736;BMP180;10528;52.124;5.196;2023-03-12T03:24:53;100784.00;;;9.40
20736;BMP180;10528;52.124;5.196;2023-03-12T03:27:20;100773.00;;;9.40
20736;BMP180;10528;52.124;5.196;2023-03-12T03:29:47;100767.00;;;9.40
20736;BMP180;10528;52.124;5.196;2023-03-12T03:32:15;100753.00;;;9.40
20736;BMP180;10528;52.124;5.196;2023-03-12T03:34:42;100761.00;;;9.40
20736;BMP180;10528;52.124;5.196;2023-03-12T03:37:09;100762.00;;;9.40
20736;BMP180;10528;52.124;5.196;2023-03-12T03:39:35;100756.00;;;9.40
20736;BMP180;10528;52.124;5.196;2023-03-12T03:42:03;100757.00;;;9.40
20736;BMP180;10528;52.124;5.196;2023-03-12T03:44:32;100757.00;;;9.40
20736;BMP180;10528;52.124;5.196;2023-03-12T03:46:59;100760.00;;;9.40
20736;BMP180;10528;52.124;5.196;2023-03-12T03:49:26;100755.00;;;9.40
20736;BMP180;10528;52.124;5.196;2023-03-12T03:51:53;100749.00;;;9.40
20736;BMP180;10528;52.124;5.196;2023-03-12T03:54:27;100761.00;;;9.50
20736;BMP180;10528;52.124;5.196;2023-03-12T03:56:57;100760.00;;;9.50
20736;BMP180;10528;52.124;5.196;2023-03-12T03:59:23;100761.00;;;9.50
20736;BMP180;10528;52.124;5.196;2023-03-12T04:01:50;100758.00;;;9.50
20736;BMP180;10528;52.124;5.196;2023-03-12T04:04:18;100764.00;;;9.50
20736;BMP180;10528;52.124;5.196;2023-03-12T04:06:44;100754.00;;;9.50
20736;BMP180;10528;52.124;5.196;2023-03-12T04:09:12;100756.00;;;9.50
20736;BMP180;10528;52.124;5.196;2023-03-12T04:11:39;100750.00;;;9.50
20736;BMP180;10528;52.124;5.196;2023-03-12T04:14:07;100752.00;;;9.50
20736;BMP180;10528;52.124;5.196;2023-03-12T04:16:37;100750.00;;;9.50
20736;BMP180;10528;52.124;5.196;2023-03-12T04:19:04;100742.00;;;9.50
20736;BMP180;10528;52.124;5.196;2023-03-12T04:21:31;100735.00;;;9.50
20736;BMP180;10528;52.124;5.196;2023-03-12T04:23:58;100732.00;;;9.50
20736;BMP180;10528;52.124;5.196;2023-03-12T04:26:29;100704.00;;;9.50
20736;BMP180;10528;52.124;5.196;2023-03-12T04:28:56;100728.00;;;9.50
20736;BMP180;10528;52.124;5.196;2023-03-12T04:31:23;100724.00;;;9.50
20736;BMP180;10528;52.124;5.196;2023-03-12T04:33:50;100708.00;;;9.50
20736;BMP180;10528;52.124;5.196;2023-03-12T04:36:20;100709.00;;;9.50
20736;BMP180;10528;52.124;5.196;2023-03-12T04:38:49;100701.00;;;9.50
20736;BMP180;10528;52.124;5.196;2023-03-12T04:41:19;100703.00;;;9.50
20736;BMP180;10528;52.124;5.196;2023-03-12T04:44:02;100694.00;;;9.50
20736;BMP180;10528;52.124;5.196;2023-03-12T04:46:29;100693.00;;;9.50
20736;BMP180;10528;52.124;5.196;2023-03-12T04:48:57;100678.00;;;9.50
20736;BMP180;10528;52.124;5.196;2023-03-12T04:51:30;100667.00;;;9.50
20736;BMP180;10528;52.124;5.196;2023-03-12T04:53:57;100660.00;;;9.50
20736;BMP180;10528;52.124;5.196;2023-03-12T04:56:25;100656.00;;;9.50
20736;BMP180;10528;52.124;5.196;2023-03-12T04:58:52;100643.00;;;9.50
20736;BMP180;10528;52.124;5.196;2023-03-12T05:01:29;100646.00;;;9.50
20736;BMP180;10528;52.124;5.196;2023-03-12T05:03:57;100650.00;;;9.50
20736;BMP180;10528;52.124;5.196;2023-03-12T05:06:24;100650.00;;;9.50
20736;BMP180;10528;52.124;5.196;2023-03-12T05:08:52;100637.00;;;9.50
20736;BMP180;10528;52.124;5.196;2023-03-12T05:11:20;100634.00;;;9.50
20736;BMP180;10528;52.124;5.196;2023-03-12T05:13:48;100631.00;;;9.50
20736;BMP180;10528;52.124;5.196;2023-03-12T05:16:16;100632.00;;;9.50
20736;BMP180;10528;52.124;5.196;2023-03-12T05:18:44;100627.00;;;9.50
20736;BMP180;10528;52.124;5.196;2023-03-12T05:21:17;100625.00;;;9.50
20736;BMP180;10528;52.124;5.196;2023-03-12T05:23:46;100628.00;;;9.50
20736;BMP180;10528;52.124;5.196;2023-03-12T05:26:25;100633.00;;;9.50
20736;BMP180;10528;52.124;5.196;2023-03-12T05:29:00;100624.00;;;9.50
20736;BMP180;10528;52.124;5.196;2023-03-12T05:31:28;100629.00;;;9.50
20736;BMP180;10528;52.124;5.196;2023-03-12T05:33:59;100626.00;;;9.50
20736;BMP180;10528;52.124;5.196;2023-03-12T05:36:26;100632.00;;;9.50
20736;BMP180;10528;52.124;5.196;2023-03-12T05:38:54;100617.00;;;9.50
20736;BMP180;10528;52.124;5.196;2023-03-12T05:41:26;100621.00;;;9.50
20736;BMP180;10528;52.124;5.196;2023-03-12T05:43:57;100615.00;;;9.50
20736;BMP180;10528;52.124;5.196;2023-03-12T05:46:27;100622.00;;;9.50
20736;BMP180;10528;52.124;5.196;2023-03-12T05:48:54;100604.00;;;9.50
20736;BMP180;10528;52.124;5.196;2023-03-12T05:51:22;100607.00;;;9.50
20736;BMP180;10528;52.124;5.196;2023-03-12T05:53:49;100615.00;;;9.60
20736;BMP180;10528;52.124;5.196;2023-03-12T05:56:17;100623.00;;;9.60
20736;BMP180;10528;52.124;5.196;2023-03-12T05:58:46;100626.00;;;9.60
20736;BMP180;10528;52.124;5.196;2023-03-12T06:01:19;100625.00;;;9.60
20736;BMP180;10528;52.124;5.196;2023-03-12T06:03:47;100625.00;;;9.70
20736;BMP180;10528;52.124;5.196;2023-03-12T06:06:14;100617.00;;;9.70
20736;BMP180;10528;52.124;5.196;2023-03-12T06:08:42;100622.00;;;9.70
20736;BMP180;10528;52.124;5.196;2023-03-12T06:11:11;100616.00;;;9.70
20736;BMP180;10528;52.124;5.196;2023-03-12T06:13:38;100614.00;;;9.70
20736;BMP180;10528;52.124;5.196;2023-03-12T06:16:18;100621.00;;;9.70
20736;BMP180;10528;52.124;5.196;2023-03-12T06:18:46;100628.00;;;9.70
20736;BMP180;10528;52.124;5.196;2023-03-12T06:21:22;100623.00;;;9.70
20736;BMP180;10528;52.124;5.196;2023-03-12T06:23:50;100618.00;;;9.70
20736;BMP180;10528;52.124;5.196;2023-03-12T06:26:24;100619.00;;;9.70
20736;BMP180;10528;52.124;5.196;2023-03-12T06:28:52;100621.00;;;9.70
20736;BMP180;10528;52.124;5.196;2023-03-12T06:31:20;100609.00;;;9.70
20736;BMP180;10528;52.124;5.196;2023-03-12T06:33:48;100602.00;;;9.70
20736;BMP180;10528;52.124;5.196;2023-03-12T06:36:15;100604.00;;;9.70
20736;BMP180;10528;52.124;5.196;2023-03-12T06:38:42;100598.00;;;9.70
20736;BMP180;10528;52.124;5.196;2023-03-12T06:41:14;100595.00;;;9.60
20736;BMP180;10528;52.124;5.196;2023-03-12T06:43:42;100586.00;;;9.70
20736;BMP180;10528;52.124;5.196;2023-03-12T06:46:14;100580.00;;;9.60
20736;BMP180;10528;52.124;5.196;2023-03-12T06:48:43;100578.00;;;9.70
20736;BMP180;10528;52.124;5.196;2023-03-12T06:51:14;100590.00;;;9.60
20736;BMP180;10528;52.124;5.196;2023-03-12T06:53:41;100574.00;;;9.60
20736;BMP180;10528;52.124;5.196;2023-03-12T06:56:09;100576.00;;;9.60
20736;BMP180;10528;52.124;5.196;2023-03-12T06:58:37;100571.00;;;9.60
20736;BMP180;10528;52.124;5.196;2023-03-12T07:01:04;100575.00;;;9.70
20736;BMP180;10528;52.124;5.196;2023-03-12T07:03:32;100547.00;;;9.70
20736;BMP180;10528;52.124;5.196;2023-03-12T07:05:59;100552.00;;;9.70
20736;BMP180;10528;52.124;5.196;2023-03-12T07:08:27;100534.00;;;9.70
20736;BMP180;10528;52.124;5.196;2023-03-12T07:10:58;100523.00;;;9.70
20736;BMP180;10528;52.124;5.196;2023-03-12T07:13:29;100542.00;;;9.70
20736;BMP180;10528;52.124;5.196;2023-03-12T07:15:56;100538.00;;;9.70
20736;BMP180;10528;52.124;5.196;2023-03-12T07:18:23;100553.00;;;9.70
20736;BMP180;10528;52.124;5.196;2023-03-12T07:20:51;100551.00;;;9.70
20736;BMP180;10528;52.124;5.196;2023-03-12T07:23:19;100554.00;;;9.70
20736;BMP180;10528;52.124;5.196;2023-03-12T07:25:46;100554.00;;;9.70
20736;BMP180;10528;52.124;5.196;2023-03-12T07:28:14;100541.00;;;9.80
20736;BMP180;10528;52.124;5.196;2023-03-12T07:30:42;100578.00;;;9.80
20736;BMP180;10528;52.124;5.196;2023-03-12T07:33:13;100582.00;;;9.80
20736;BMP180;10528;52.124;5.196;2023-03-12T07:35:40;100561.00;;;9.80
20736;BMP180;10528;52.124;5.196;2023-03-12T07:38:07;100590.00;;;9.80
20736;BMP180;10528;52.124;5.196;2023-03-12T07:40:35;100577.00;;;9.80
20736;BMP180;10528;52.124;5.196;2023-03-12T07:43:04;100572.00;;;9.80
20736;BMP180;10528;52.124;5.196;2023-03-12T07:45:38;100582.00;;;9.90
20736;BMP180;10528;52.124;5.196;2023-03-12T07:48:05;100570.00;;;9.90
20736;BMP180;10528;52.124;5.196;2023-03-12T07:50:33;100582.00;;;9.90
20736;BMP180;10528;52.124;5.196;2023-03-12T07:53:00;100572.00;;;9.90
20736;BMP180;10528;52.124;5.196;2023-03-12T07:55:27;100588.00;;;9.90
20736;BMP180;10528;52.124;5.196;2023-03-12T07:57:54;100587.00;;;10.00
20736;BMP180;10528;52.124;5.196;2023-03-12T08:00:25;100571.00;;;10.00
20736;BMP180;10528;52.124;5.196;2023-03-12T08:02:53;100581.00;;;10.00
20736;BMP180;10528;52.124;5.196;2023-03-12T08:05:20;100566.00;;;10.00
20736;BMP180;10528;52.124;5.196;2023-03-12T08:07:51;100566.00;;;10.00
20736;BMP180;10528;52.124;5.196;2023-03-12T08:10:19;100573.00;;;10.10
20736;BMP180;10528;52.124;5.196;2023-03-12T08:12:47;100567.00;;;10.10
20736;BMP180;10528;52.124;5.196;2023-03-12T08:15:15;100579.00;;;10.10
20736;BMP180;10528;52.124;5.196;2023-03-12T08:17:43;100573.00;;;10.10
20736;BMP180;10528;52.124;5.196;2023-03-12T08:20:11;100567.00;;;10.20
20736;BMP180;10528;52.124;5.196;2023-03-12T08:22:39;100570.00;;;10.20
20736;BMP180;10528;52.124;5.196;2023-03-12T08:25:07;100574.00;;;10.20
20736;BMP180;10528;52.124;5.196;2023-03-12T08:27:34;100578.00;;;10.30
20736;BMP180;10528;52.124;5.196;2023-03-12T08:30:02;100561.00;;;10.30
20736;BMP180;10528;52.124;5.196;2023-03-12T08:32:29;100583.00;;;10.30
20736;BMP180;10528;52.124;5.196;2023-03-12T08:34:56;100582.00;;;10.40
20736;BMP180;10528;52.124;5.196;2023-03-12T08:37:23;100580.00;;;10.40
20736;BMP180;10528;52.124;5.196;2023-03-12T08:39:50;100579.00;;;10.40
20736;BMP180;10528;52.124;5.196;2023-03-12T08:42:17;100589.00;;;10.40
20736;BMP180;10528;52.124;5.196;2023-03-12T08:44:43;100579.00;;;10.50
20736;BMP180;10528;52.124;5.196;2023-03-12T08:47:10;100579.00;;;10.50
20736;BMP180;10528;52.124;5.196;2023-03-12T08:49:37;100582.00;;;10.50
20736;BMP180;10528;52.124;5.196;2023-03-12T08:52:04;100586.00;;;10.60
20736;BMP180;10528;52.124;5.196;2023-03-12T08:54:31;100588.00;;;10.60
20736;BMP180;10528;52.124;5.196;2023-03-12T08:56:59;100596.00;;;10.60
20736;BMP180;10528;52.124;5.196;2023-03-12T08:59:26;100588.00;;;10.60
20736;BMP180;10528;52.124;5.196;2023-03-12T09:01:52;100599.00;;;10.70
20736;BMP180;10528;52.124;5.196;2023-03-12T09:04:19;100588.00;;;10.70
20736;BMP180;10528;52.124;5.196;2023-03-12T09:06:46;100594.00;;;10.80
20736;BMP180;10528;52.124;5.196;2023-03-12T09:09:13;100595.00;;;10.90
20736;BMP180;10528;52.124;5.196;2023-03-12T09:11:40;100589.00;;;10.90
20736;BMP180;10528;52.124;5.196;2023-03-12T09:14:08;100583.00;;;11.00
20736;BMP180;10528;52.124;5.196;2023-03-12T09:16:56;100567.00;;;11.00
20736;BMP180;10528;52.124;5.196;2023-03-12T09:19:23;100586.00;;;11.10
20736;BMP180;10528;52.124;5.196;2023-03-12T09:21:50;100565.00;;;11.10
20736;BMP180;10528;52.124;5.196;2023-03-12T09:24:17;100571.00;;;11.20
20736;BMP180;10528;52.124;5.196;2023-03-12T09:26:44;100568.00;;;11.30
20736;BMP180;10528;52.124;5.196;2023-03-12T09:29:10;100557.00;;;11.30
20736;BMP180;10528;52.124;5.196;2023-03-12T09:31:37;100574.00;;;11.40
20736;BMP180;10528;52.124;5.196;2023-03-12T09:34:04;100576.00;;;11.50
20736;BMP180;10528;52.124;5.196;2023-03-12T09:36:32;100580.00;;;11.50
20736;BMP180;10528;52.124;5.196;2023-03-12T09:38:59;100588.00;;;11.60
20736;BMP180;10528;52.124;5.196;2023-03-12T09:41:34;100587.00;;;11.70
20736;BMP180;10528;52.124;5.196;2023-03-12T09:44:14;100576.00;;;11.70
20736;BMP180;10528;52.124;5.196;2023-03-12T09:47:02;100581.00;;;11.70
20736;BMP180;10528;52.124;5.196;2023-03-12T09:49:48;100576.00;;;11.80
20736;BMP180;10528;52.124;5.196;2023-03-12T09:52:33;100581.00;;;11.80
20736;BMP180;10528;52.124;5.196;2023-03-12T09:55:18;100586.00;;;11.90
20736;BMP180;10528;52.124;5.196;2023-03-12T09:57:48;100598.00;;;11.90
20736;BMP180;10528;52.124;5.196;2023-03-12T10:00:23;100596.00;;;12.00
20736;BMP180;10528;52.124;5.196;2023-03-12T10:06:15;100607.00;;;12.10
20736;BMP180;10528;52.124;5.196;2023-03-12T10:12:12;100605.00;;;12.20
20736;BMP180;10528;52.124;5.196;2023-03-12T10:26:38;100596.00;;;12.50
20736;BMP180;10528;52.124;5.196;2023-03-12T10:29:25;100603.00;;;12.60
20736;BMP180;10528;52.124;5.196;2023-03-12T10:31:54;100592.00;;;12.60
20736;BMP180;10528;52.124;5.196;2023-03-12T10:34:55;100599.00;;;12.70
20736;BMP180;10528;52.124;5.196;2023-03-12T10:37:52;100601.00;;;12.80
20736;BMP180;10528;52.124;5.196;2023-03-12T10:40:24;100601.00;;;12.90
20736;BMP180;10528;52.124;5.196;2023-03-12T10:42:52;100587.00;;;13.00
20736;BMP180;10528;52.124;5.196;2023-03-12T10:45:46;100603.00;;;13.10
20736;BMP180;10528;52.124;5.196;2023-03-12T10:48:22;100594.00;;;13.10
20736;BMP180;10528;52.124;5.196;2023-03-12T10:51:08;100581.00;;;13.20
20736;BMP180;10528;52.124;5.196;2023-03-12T10:53:44;100599.00;;;13.20
20736;BMP180;10528;52.124;5.196;2023-03-12T10:56:17;100597.00;;;13.30
20736;BMP180;10528;52.124;5.196;2023-03-12T10:58:48;100602.00;;;13.30
20736;BMP180;10528;52.124;5.196;2023-03-12T11:01:27;100597.00;;;13.40
20736;BMP180;10528;52.124;5.196;2023-03-12T11:04:18;100606.00;;;13.40
20736;BMP180;10528;52.124;5.196;2023-03-12T11:09:37;100599.00;;;13.50
20736;BMP180;10528;52.124;5.196;2023-03-12T11:12:27;100600.00;;;13.50
20736;BMP180;10528;52.124;5.196;2023-03-12T11:14:57;100605.00;;;13.50
20736;BMP180;10528;52.124;5.196;2023-03-12T11:17:28;100627.00;;;13.50
20736;BMP180;10528;52.124;5.196;2023-03-12T11:19:55;100621.00;;;13.60
20736;BMP180;10528;52.124;5.196;2023-03-12T11:22:33;100626.00;;;13.70
20736;BMP180;10528;52.124;5.196;2023-03-12T11:25:06;100625.00;;;13.70
20736;BMP180;10528;52.124;5.196;2023-03-12T11:27:43;100630.00;;;13.70
20736;BMP180;10528;52.124;5.196;2023-03-12T11:30:15;100624.00;;;13.70
20736;BMP180;10528;52.124;5.196;2023-03-12T11:32:48;100621.00;;;13.70
20736;BMP180;10528;52.124;5.196;2023-03-12T11:35:27;100624.00;;;13.80
20736;BMP180;10528;52.124;5.196;2023-03-12T11:38:20;100618.00;;;13.80
20736;BMP180;10528;52.124;5.196;2023-03-12T11:52:21;100602.00;;;13.90
20736;BMP180;10528;52.124;5.196;2023-03-12T11:55:23;100598.00;;;13.90
20736;BMP180;10528;52.124;5.196;2023-03-12T11:58:22;100593.00;;;14.00
20736;BMP180;10528;52.124;5.196;2023-03-12T12:01:13;100587.00;;;14.00
20736;BMP180;10528;52.124;5.196;2023-03-12T12:09:58;100582.00;;;14.10
20736;BMP180;10528;52.124;5.196;2023-03-12T12:27:26;100569.00;;;14.40
20736;BMP180;10528;52.124;5.196;2023-03-12T12:32:53;100569.00;;;14.60
20736;BMP180;10528;52.124;5.196;2023-03-12T12:35:38;100566.00;;;14.60
20736;BMP180;10528;52.124;5.196;2023-03-12T12:38:32;100572.00;;;14.70
20736;BMP180;10528;52.124;5.196;2023-03-12T12:41:29;100581.00;;;14.70
20736;BMP180;10528;52.124;5.196;2023-03-12T12:44:12;100583.00;;;14.70
20736;BMP180;10528;52.124;5.196;2023-03-12T12:46:51;100565.00;;;14.60
20736;BMP180;10528;52.124;5.196;2023-03-12T12:49:40;100564.00;;;14.70
20736;BMP180;10528;52.124;5.196;2023-03-12T12:52:15;100555.00;;;14.80
20736;BMP180;10528;52.124;5.196;2023-03-12T12:55:05;100540.00;;;14.90
20736;BMP180;10528;52.124;5.196;2023-03-12T12:57:53;100542.00;;;14.90
20736;BMP180;10528;52.124;5.196;2023-03-12T13:00:47;100536.00;;;15.00
20736;BMP180;10528;52.124;5.196;2023-03-12T13:03:20;100551.00;;;15.10
20736;BMP180;10528;52.124;5.196;2023-03-12T13:05:59;100547.00;;;15.20
20736;BMP180;10528;52.124;5.196;2023-03-12T13:08:35;100548.00;;;15.20
20736;BMP180;10528;52.124;5.196;2023-03-12T13:11:21;100537.00;;;15.20
20736;BMP180;10528;52.124;5.196;2023-03-12T13:14:11;100545.00;;;15.40
20736;BMP180;10528;52.124;5.196;2023-03-12T13:16:44;100547.00;;;15.40
20736;BMP180;10528;52.124;5.196;2023-03-12T13:22:21;100546.00;;;15.50
20736;BMP180;10528;52.124;5.196;2023-03-12T13:36:50;100546.00;;;15.50
20736;BMP180;10528;52.124;5.196;2023-03-12T13:39:30;100553.00;;;15.50
20736;BMP180;10528;52.124;5.196;2023-03-12T13:41:59;100550.00;;;15.50
20736;BMP180;10528;52.124;5.196;2023-03-12T13:47:26;100569.00;;;15.70
20736;BMP180;10528;52.124;5.196;2023-03-12T13:50:05;100566.00;;;15.80
20736;BMP180;10528;52.124;5.196;2023-03-12T13:57:44;100554.00;;;15.80
20736;BMP180;10528;52.124;5.196;2023-03-12T14:00:27;100548.00;;;15.90
20736;BMP180;10528;52.124;5.196;2023-03-12T14:03:03;100558.00;;;16.00
20736;BMP180;10528;52.124;5.196;2023-03-12T14:05:51;100566.00;;;16.00
20736;BMP180;10528;52.124;5.196;2023-03-12T14:11:40;100575.00;;;16.10
20736;BMP180;10528;52.124;5.196;2023-03-12T14:16:53;100578.00;;;16.00
20736;BMP180;10528;52.124;5.196;2023-03-12T14:19:33;100580.00;;;16.00
20736;BMP180;10528;52.124;5.196;2023-03-12T14:22:06;100592.00;;;16.00
20736;BMP180;10528;52.124;5.196;2023-03-12T14:24:56;100597.00;;;16.10
20736;BMP180;10528;52.124;5.196;2023-03-12T14:27:28;100603.00;;;16.20
20736;BMP180;10528;52.124;5.196;2023-03-12T14:30:10;100605.00;;;16.10
20736;BMP180;10528;52.124;5.196;2023-03-12T14:32:39;100618.00;;;16.00
20736;BMP180;10528;52.124;5.196;2023-03-12T14:35:25;100610.00;;;16.00
20736;BMP180;10528;52.124;5.196;2023-03-12T14:38:15;100600.00;;;16.10
20736;BMP180;10528;52.124;5.196;2023-03-12T14:40:56;100603.00;;;16.20
20736;BMP180;10528;52.124;5.196;2023-03-12T14:43:32;100607.00;;;16.20
20736;BMP180;10528;52.124;5.196;2023-03-12T14:46:12;100619.00;;;16.20
20736;BMP180;10528;52.124;5.196;2023-03-12T14:48:40;100609.00;;;16.20
20736;BMP180;10528;52.124;5.196;2023-03-12T14:51:07;100614.00;;;16.30
20736;BMP180;10528;52.124;5.196;2023-03-12T14:53:36;100625.00;;;16.30
20736;BMP180;10528;52.124;5.196;2023-03-12T14:58:44;100611.00;;;16.30
20736;BMP180;10528;52.124;5.196;2023-03-12T15:01:25;100609.00;;;16.30
20736;BMP180;10528;52.124;5.196;2023-03-12T15:04:03;100611.00;;;16.40
20736;BMP180;10528;52.124;5.196;2023-03-12T15:06:37;100602.00;;;16.40
20736;BMP180;10528;52.124;5.196;2023-03-12T15:09:06;100612.00;;;16.40
20736;BMP180;10528;52.124;5.196;2023-03-12T15:11:36;100611.00;;;16.40
20736;BMP180;10528;52.124;5.196;2023-03-12T15:14:12;100614.00;;;16.40
20736;BMP180;10528;52.124;5.196;2023-03-12T15:16:42;100611.00;;;16.40
20736;BMP180;10528;52.124;5.196;2023-03-12T15:19:16;100611.00;;;16.40
20736;BMP180;10528;52.124;5.196;2023-03-12T15:21:44;100609.00;;;16.40
20736;BMP180;10528;52.124;5.196;2023-03-12T15:24:13;100596.00;;;16.40
20736;BMP180;10528;52.124;5.196;2023-03-12T15:26:40;100595.00;;;16.40
20736;BMP180;10528;52.124;5.196;2023-03-12T15:29:27;100592.00;;;16.40
20736;BMP180;10528;52.124;5.196;2023-03-12T15:31:57;100594.00;;;16.40
20736;BMP180;10528;52.124;5.196;2023-03-12T15:34:35;100577.00;;;16.30
20736;BMP180;10528;52.124;5.196;2023-03-12T15:37:35;100577.00;;;16.30
20736;BMP180;10528;52.124;5.196;2023-03-12T15:40:21;100586.00;;;16.30
20736;BMP180;10528;52.124;5.196;2023-03-12T15:42:49;100581.00;;;16.30
20736;BMP180;10528;52.124;5.196;2023-03-12T15:45:37;100591.00;;;16.20
20736;BMP180;10528;52.124;5.196;2023-03-12T15:48:32;100582.00;;;16.20
20736;BMP180;10528;52.124;5.196;2023-03-12T15:51:00;100567.00;;;16.20
20736;BMP180;10528;52.124;5.196;2023-03-12T15:53:30;100567.00;;;16.20
20736;BMP180;10528;52.124;5.196;2023-03-12T15:56:17;100573.00;;;16.20
20736;BMP180;10528;52.124;5.196;2023-03-12T15:58:46;100586.00;;;16.30
20736;BMP180;10528;52.124;5.196;2023-03-12T16:01:23;100594.00;;;16.20